Time;durP1;ratioP1;P1;durP2;ratioP2;P2;SDS_P1;SDS_P2;PMS_P1;PMS_P2;Temp;Humidity;BMP_temperature;BMP_pressure;BME280_temperature;BME280_humidity;BME280_pressure;Samples;Min_cycle;Max_cycle;Signal;HPM_P1;HPM_P2
2023/02/17 00:00:10;;;;;;;0.98;0.55;;;16.30;98.60;;;;;;5051159;28;20576;-73
2023/02/17 00:02:35;;;;;;;0.30;0.30;;;16.30;98.60;;;;;;5066525;28;20052;-73
2023/02/17 00:05:01;;;;;;;0.35;0.30;;;16.30;98.60;;;;;;5048018;28;20044;-73
2023/02/17 00:07:30;;;;;;;0.98;0.82;;;16.30;98.60;;;;;;5060205;28;20064;-73
2023/02/17 00:09:56;;;;;;;0.40;0.40;;;16.30;98.50;;;;;;5056503;28;20051;-73
2023/02/17 00:12:22;;;;;;;0.60;0.60;;;16.30;98.40;;;;;;5044752;28;20532;-73
2023/02/17 00:14:48;;;;;;;0.50;0.50;;;16.30;98.60;;;;;;5046726;28;20128;-73
2023/02/17 00:17:13;;;;;;;0.70;0.70;;;16.30;98.50;;;;;;5045486;28;20056;-73
2023/02/17 00:19:39;;;;;;;0.60;0.60;;;16.30;98.50;;;;;;5050996;28;20041;-73
2023/02/17 00:22:05;;;;;;;0.52;0.52;;;16.30;98.60;;;;;;5053121;28;20584;-73
2023/02/17 00:24:31;;;;;;;0.82;0.60;;;16.30;98.50;;;;;;5064752;28;20401;-73
2023/02/17 00:26:56;;;;;;;1.65;0.50;;;16.30;98.50;;;;;;5048481;28;20036;-73
2023/02/17 00:29:22;;;;;;;0.90;0.60;;;16.20;98.70;;;;;;5040162;28;20045;-73
2023/02/17 00:31:48;;;;;;;0.35;0.35;;;16.30;98.60;;;;;;5046277;28;20037;-73
2023/02/17 00:34:15;;;;;;;0.60;0.60;;;16.20;98.60;;;;;;5042490;28;20064;-73
2023/02/17 00:36:41;;;;;;;0.73;0.55;;;16.20;98.70;;;;;;5043824;28;20533;-73
2023/02/17 00:39:06;;;;;;;0.63;0.57;;;16.20;98.50;;;;;;5043214;28;20144;-73
2023/02/17 00:41:32;;;;;;;0.60;0.60;;;16.30;98.60;;;;;;5044075;28;20045;-73
2023/02/17 00:43:58;;;;;;;0.60;0.60;;;16.30;98.50;;;;;;5039819;28;20480;-73
2023/02/17 00:46:23;;;;;;;0.50;0.50;;;16.30;98.60;;;;;;5062747;28;20036;-73
2023/02/17 00:48:49;;;;;;;0.60;0.50;;;16.30;98.60;;;;;;5052518;28;20045;-73
2023/02/17 00:51:16;;;;;;;0.50;0.50;;;16.20;98.60;;;;;;5057189;28;20044;-73
2023/02/17 00:53:41;;;;;;;0.50;0.50;;;16.20;98.50;;;;;;5045630;28;20097;-73
2023/02/17 00:56:07;;;;;;;0.50;0.50;;;16.20;98.60;;;;;;5047006;28;20053;-73
2023/02/17 00:58:33;;;;;;;0.60;0.60;;;16.20;98.50;;;;;;5043537;28;22223;-73
2023/02/17 01:00:59;;;;;;;0.60;0.60;;;16.30;98.50;;;;;;5043435;28;20082;-73
2023/02/17 01:03:25;;;;;;;0.38;0.30;;;16.20;98.40;;;;;;5043385;28;20049;-73
2023/02/17 01:05:51;;;;;;;0.60;0.60;;;16.20;98.50;;;;;;5047224;28;20048;-73
2023/02/17 01:08:16;;;;;;;0.47;0.47;;;16.20;98.50;;;;;;5060352;28;20140;-73
2023/02/17 01:10:43;;;;;;;0.50;0.50;;;16.20;98.50;;;;;;5079850;28;20036;-73
2023/02/17 01:13:09;;;;;;;0.35;0.35;;;16.20;98.40;;;;;;5047222;28;20155;-73
2023/02/17 01:15:39;;;;;;;0.47;0.47;;;16.20;98.50;;;;;;5047092;28;20049;-73
2023/02/17 01:18:04;;;;;;;0.60;0.60;;;16.20;98.50;;;;;;5044195;28;20091;-73
2023/02/17 01:20:33;;;;;;;0.50;0.50;;;16.20;98.50;;;;;;5044090;28;20033;-73
2023/02/17 01:22:59;;;;;;;0.50;0.50;;;16.20;98.70;;;;;;5062125;28;20056;-73
2023/02/17 01:25:24;;;;;;;0.43;0.43;;;16.20;98.60;;;;;;5063913;28;20100;-73
2023/02/17 01:27:50;;;;;;;0.32;0.32;;;16.20;98.60;;;;;;5046232;28;20068;-73
2023/02/17 01:30:16;;;;;;;0.50;0.50;;;16.20;98.50;;;;;;5041649;28;20110;-73
2023/02/17 01:32:41;;;;;;;0.50;0.50;;;16.20;98.50;;;;;;5045279;28;20064;-73
2023/02/17 01:35:07;;;;;;;0.45;0.45;;;16.20;98.50;;;;;;5046044;28;20052;-73
2023/02/17 01:37:32;;;;;;;0.68;0.68;;;16.20;98.50;;;;;;5046915;28;20395;-73
2023/02/17 01:39:58;;;;;;;0.50;0.50;;;16.20;98.50;;;;;;5043217;28;20044;-73
2023/02/17 01:42:24;;;;;;;0.40;0.40;;;16.20;98.60;;;;;;5044584;28;20532;-73
2023/02/17 01:45:28;;;;;;;0.50;0.50;;;16.20;98.50;;;;;;5046109;28;20355;-73
2023/02/17 01:47:54;;;;;;;0.90;0.90;;;16.20;98.60;;;;;;5060539;28;20112;-73
2023/02/17 01:50:21;;;;;;;0.50;0.50;;;16.20;98.50;;;;;;5046205;28;20808;-73
2023/02/17 01:52:46;;;;;;;0.52;0.52;;;16.20;98.30;;;;;;5043728;28;20559;-73
2023/02/17 01:55:15;;;;;;;0.40;0.40;;;16.20;98.40;;;;;;5057874;28;20050;-73
2023/02/17 01:57:40;;;;;;;0.50;0.50;;;16.20;98.50;;;;;;5044973;28;20044;-73
2023/02/17 02:00:07;;;;;;;0.28;0.28;;;16.20;98.40;;;;;;5045869;28;20045;-73
2023/02/17 02:02:32;;;;;;;0.50;0.50;;;16.20;98.40;;;;;;5043887;28;20148;-73
2023/02/17 02:04:58;;;;;;;0.60;0.60;;;16.20;98.40;;;;;;5051264;28;20561;-73
2023/02/17 02:07:32;;;;;;;0.70;0.70;;;16.20;98.30;;;;;;5056576;28;20098;-73
2023/02/17 02:09:58;;;;;;;0.60;0.60;;;16.20;98.50;;;;;;5069342;28;20098;-78
2023/02/17 02:12:32;;;;;;;0.70;0.70;;;16.20;98.50;;;;;;5054223;28;20061;-77
2023/02/17 02:15:06;;;;;;;0.50;0.50;;;16.20;98.40;;;;;;5065846;28;20040;-77
2023/02/17 02:17:43;;;;;;;0.65;0.65;;;16.20;98.40;;;;;;5048637;28;20056;-77
2023/02/17 02:20:47;;;;;;;0.68;0.68;;;16.10;98.60;;;;;;5068350;28;20048;-77
2023/02/17 02:23:24;;;;;;;0.40;0.40;;;16.10;98.50;;;;;;5043831;28;20052;-77
2023/02/17 02:26:19;;;;;;;0.50;0.50;;;16.20;98.50;;;;;;5044557;28;20071;-77
2023/02/17 02:28:59;;;;;;;0.57;0.57;;;16.10;98.50;;;;;;5022628;28;20041;-77
2023/02/17 02:31:30;;;;;;;0.43;0.43;;;16.10;98.60;;;;;;5034287;28;20048;-77
2023/02/17 02:34:00;;;;;;;0.50;0.50;;;16.10;98.50;;;;;;5030607;28;20048;-77
2023/02/17 02:36:34;;;;;;;0.40;0.40;;;16.10;98.40;;;;;;5008622;28;20132;-78
2023/02/17 02:39:00;;;;;;;;;;;16.10;98.50;;;;;;5012495;28;20080;-78
2023/02/17 02:41:29;;;;;;;0.55;0.55;;;16.20;98.50;;;;;;5042538;28;19924;-77
2023/02/17 02:43:55;;;;;;;0.63;0.63;;;16.10;98.40;;;;;;5030855;28;20041;-78
2023/02/17 02:46:20;;;;;;;0.40;0.40;;;16.10;98.60;;;;;;5042542;28;20058;-77
2023/02/17 02:48:46;;;;;;;0.52;0.38;;;16.10;98.50;;;;;;5034473;28;20065;-78
2023/02/17 02:51:46;;;;;;;0.40;0.40;;;16.20;98.50;;;;;;5005750;28;20059;-77
2023/02/17 02:54:35;;;;;;;0.50;0.50;;;16.10;98.50;;;;;;5043118;28;20587;-77
2023/02/17 02:57:11;;;;;;;0.50;0.50;;;16.10;98.50;;;;;;5052123;28;20036;-76
2023/02/17 03:00:08;;;;;;;0.40;0.40;;;16.20;98.60;;;;;;5054818;28;20069;-78
2023/02/17 03:02:44;;;;;;;0.40;0.40;;;16.10;98.50;;;;;;5052619;28;20041;-78
2023/02/17 03:05:15;;;;;;;0.38;0.38;;;16.10;98.50;;;;;;5055990;28;20048;-77
2023/02/17 03:07:53;;;;;;;0.50;0.50;;;16.10;98.50;;;;;;5071364;28;20059;-77
2023/02/17 03:10:18;;;;;;;0.30;0.30;;;16.10;98.50;;;;;;5073583;28;20521;-78
2023/02/17 03:12:44;;;;;;;0.43;0.43;;;16.10;98.50;;;;;;5053376;28;20056;-78
2023/02/17 03:15:32;;;;;;;0.60;0.60;;;16.20;98.50;;;;;;5057294;28;20041;-77
2023/02/17 03:17:58;;;;;;;0.50;0.50;;;16.10;98.40;;;;;;5044610;28;20049;-77
2023/02/17 03:20:24;;;;;;;0.70;0.70;;;16.10;98.40;;;;;;5052135;28;20048;-77
2023/02/17 03:22:50;;;;;;;0.60;0.60;;;16.10;98.50;;;;;;5036506;28;20127;-77
2023/02/17 03:25:16;;;;;;;0.40;0.40;;;16.10;98.50;;;;;;5029371;28;20132;-77
2023/02/17 03:27:41;;;;;;;0.30;0.30;;;16.10;98.50;;;;;;5049905;28;20068;-78
2023/02/17 03:30:08;;;;;;;0.70;0.70;;;16.10;98.50;;;;;;5060646;28;20056;-78
2023/02/17 03:32:33;;;;;;;0.50;0.40;;;16.10;98.50;;;;;;5069303;28;20045;-79
2023/02/17 03:34:59;;;;;;;0.40;0.40;;;16.10;98.40;;;;;;5037440;28;20498;-78
2023/02/17 03:37:24;;;;;;;0.60;0.60;;;16.10;98.50;;;;;;5036700;28;20081;-78
2023/02/17 03:39:50;;;;;;;0.40;0.40;;;16.10;98.60;;;;;;5051282;28;20045;-78
2023/02/17 03:42:15;;;;;;;0.45;0.45;;;16.10;98.50;;;;;;5052720;28;20594;-78
2023/02/17 03:44:41;;;;;;;0.47;0.47;;;16.10;98.50;;;;;;5038642;28;20061;-79
2023/02/17 03:47:07;;;;;;;0.40;0.40;;;16.10;98.50;;;;;;5031754;28;20036;-78
2023/02/17 03:49:32;;;;;;;0.40;0.40;;;16.20;98.40;;;;;;5032695;28;20049;-78
2023/02/17 03:51:58;;;;;;;0.32;0.32;;;16.10;98.50;;;;;;5032913;28;20045;-78
2023/02/17 03:54:24;;;;;;;0.45;0.45;;;16.10;98.40;;;;;;5033413;28;21999;-78
2023/02/17 03:56:50;;;;;;;0.47;0.47;;;16.10;98.40;;;;;;5032657;28;20049;-78
2023/02/17 03:59:15;;;;;;;0.60;0.60;;;16.10;98.40;;;;;;5032869;28;20145;-78
2023/02/17 04:01:41;;;;;;;0.57;0.57;;;16.10;98.50;;;;;;5031540;28;20515;-78
2023/02/17 04:04:06;;;;;;;0.40;0.40;;;16.10;98.50;;;;;;5034142;28;20056;-78
2023/02/17 04:06:32;;;;;;;0.50;0.50;;;16.10;98.40;;;;;;5037324;28;20064;-78
2023/02/17 04:08:58;;;;;;;0.30;0.30;;;16.10;98.60;;;;;;5037746;28;20532;-78
2023/02/17 04:11:23;;;;;;;0.40;0.40;;;16.10;98.40;;;;;;5026112;28;20045;-78
2023/02/17 04:13:49;;;;;;;0.30;0.30;;;16.10;98.50;;;;;;5034988;28;20477;-78
2023/02/17 04:16:14;;;;;;;0.30;0.30;;;16.10;98.60;;;;;;5035293;28;20047;-78
2023/02/17 04:18:40;;;;;;;0.30;0.30;;;16.10;98.50;;;;;;5034525;28;20469;-78
2023/02/17 04:21:06;;;;;;;0.40;0.40;;;16.10;98.60;;;;;;5034975;28;20045;-79
2023/02/17 04:23:32;;;;;;;0.30;0.30;;;16.10;98.50;;;;;;5020306;28;20490;-79
2023/02/17 04:25:58;;;;;;;0.35;0.35;;;16.10;98.50;;;;;;5032188;28;20521;-77
2023/02/17 04:28:24;;;;;;;0.35;0.35;;;16.10;98.60;;;;;;5034562;28;20041;-78
2023/02/17 04:30:49;;;;;;;0.40;0.40;;;16.10;98.50;;;;;;5034187;28;20033;-78
2023/02/17 04:33:15;;;;;;;0.40;0.40;;;16.10;98.50;;;;;;5032084;28;20029;-78
2023/02/17 04:35:41;;;;;;;0.50;0.50;;;16.10;98.90;;;;;;5033975;28;20504;-78
2023/02/17 04:38:07;;;;;;;0.40;0.40;;;16.10;98.50;;;;;;5032699;28;20112;-78
2023/02/17 04:40:32;;;;;;;0.40;0.40;;;16.10;98.60;;;;;;5012192;28;20128;-79
2023/02/17 04:42:58;;;;;;;0.45;0.40;;;16.10;98.50;;;;;;5031110;28;20087;-79
2023/02/17 04:45:23;;;;;;;0.40;0.40;;;16.10;98.50;;;;;;5036415;28;20067;-78
2023/02/17 04:47:49;;;;;;;0.40;0.40;;;16.00;98.50;;;;;;5065638;28;20078;-79
2023/02/17 04:50:15;;;;;;;0.43;0.43;;;16.10;98.60;;;;;;5064233;28;20044;-78
2023/02/17 04:52:40;;;;;;;0.50;0.50;;;16.00;98.50;;;;;;5059818;28;20116;-79
2023/02/17 04:55:06;;;;;;;0.30;0.30;;;16.10;98.50;;;;;;5063805;28;20568;-79
2023/02/17 04:57:32;;;;;;;0.43;0.43;;;16.10;98.60;;;;;;5062213;28;20047;-78
2023/02/17 04:59:57;;;;;;;0.40;0.40;;;16.10;98.50;;;;;;5058708;28;20505;-78
2023/02/17 05:02:25;;;;;;;0.40;0.40;;;16.00;98.50;;;;;;5063229;28;20036;-78
2023/02/17 05:04:51;;;;;;;0.32;0.32;;;16.10;98.50;;;;;;5061957;28;20063;-78
2023/02/17 05:07:17;;;;;;;0.35;0.35;;;16.10;98.50;;;;;;5066073;28;20464;-78
2023/02/17 05:09:43;;;;;;;0.52;0.52;;;16.10;98.60;;;;;;5060445;28;20048;-78
2023/02/17 05:12:08;;;;;;;0.40;0.40;;;16.10;98.40;;;;;;5044415;28;20025;-78
2023/02/17 05:14:34;;;;;;;0.30;0.30;;;16.10;98.60;;;;;;5043763;28;20107;-79
2023/02/17 05:17:00;;;;;;;0.43;0.43;;;16.00;98.50;;;;;;5043969;28;20029;-79
2023/02/17 05:19:25;;;;;;;0.35;0.35;;;16.00;98.50;;;;;;5044193;28;20694;-78
2023/02/17 05:21:51;;;;;;;0.30;0.30;;;16.10;98.50;;;;;;5043343;28;20041;-78
2023/02/17 05:24:16;;;;;;;0.57;0.57;;;16.00;98.40;;;;;;5042180;28;20620;-78
2023/02/17 05:26:42;;;;;;;0.40;0.40;;;16.00;98.50;;;;;;5043704;28;20065;-78
2023/02/17 05:29:08;;;;;;;0.40;0.40;;;16.00;98.50;;;;;;5043796;28;20498;-78
2023/02/17 05:31:33;;;;;;;0.40;0.40;;;16.00;98.40;;;;;;5061847;28;20048;-78
2023/02/17 05:33:59;;;;;;;0.30;0.30;;;16.10;98.40;;;;;;5045261;28;20037;-78
2023/02/17 05:36:24;;;;;;;0.40;0.40;;;16.10;98.40;;;;;;5042519;28;20041;-78
2023/02/17 05:38:50;;;;;;;0.40;0.40;;;16.00;98.40;;;;;;5045659;28;20053;-79
2023/02/17 05:41:16;;;;;;;0.50;0.50;;;16.10;98.70;;;;;;5041083;28;20178;-78
2023/02/17 05:43:42;;;;;;;0.22;0.22;;;16.00;98.50;;;;;;5044310;28;20116;-78
2023/02/17 05:46:07;;;;;;;0.20;0.20;;;16.00;98.50;;;;;;5043709;28;20045;-78
2023/02/17 05:48:33;;;;;;;0.38;0.38;;;16.00;98.80;;;;;;5045789;28;20092;-78
2023/02/17 05:50:59;;;;;;;0.20;0.20;;;16.00;98.50;;;;;;5048752;28;20052;-78
2023/02/17 05:53:25;;;;;;;0.30;0.30;;;16.00;99.00;;;;;;5064419;28;20509;-78
2023/02/17 05:55:50;;;;;;;0.20;0.20;;;16.00;98.60;;;;;;5051442;28;20044;-78
2023/02/17 05:58:16;;;;;;;0.22;0.22;;;16.00;98.40;;;;;;5047726;28;20040;-78
2023/02/17 06:00:41;;;;;;;0.40;0.40;;;16.00;98.40;;;;;;5067060;28;20045;-78
2023/02/17 06:03:07;;;;;;;0.25;0.25;;;16.10;98.50;;;;;;5056609;28;20080;-78
2023/02/17 06:05:32;;;;;;;0.30;0.30;;;16.00;98.50;;;;;;5059847;28;20044;-78
2023/02/17 06:07:58;;;;;;;0.20;0.20;;;16.10;98.50;;;;;;5061336;28;20084;-78
2023/02/17 06:10:24;;;;;;;0.20;0.20;;;16.00;98.60;;;;;;5055682;28;20041;-79
2023/02/17 06:12:49;;;;;;;0.13;0.13;;;16.10;98.50;;;;;;5047605;28;20652;-80
2023/02/17 06:15:15;;;;;;;0.28;0.28;;;16.10;98.50;;;;;;5047120;28;20041;-79
2023/02/17 06:17:41;;;;;;;0.20;0.20;;;16.10;98.60;;;;;;5048491;28;20696;-80
2023/02/17 06:20:07;;;;;;;0.73;0.30;;;16.10;98.60;;;;;;5047593;28;20072;-81
2023/02/17 06:22:32;;;;;;;0.20;0.20;;;16.10;98.80;;;;;;5048045;28;20029;-79
2023/02/17 06:24:58;;;;;;;0.20;0.20;;;16.10;98.70;;;;;;5046674;28;20048;-79
2023/02/17 06:27:24;;;;;;;0.35;0.35;;;16.10;98.90;;;;;;5048207;28;20525;-79
2023/02/17 06:29:49;;;;;;;0.20;0.20;;;16.10;98.90;;;;;;5048613;28;20049;-79
2023/02/17 06:32:15;;;;;;;0.47;0.20;;;16.20;98.80;;;;;;5046593;28;20037;-78
2023/02/17 06:34:40;;;;;;;0.30;0.20;;;16.10;98.90;;;;;;5048832;28;20040;-79
2023/02/17 06:37:06;;;;;;;0.43;0.43;;;16.10;98.80;;;;;;5046902;28;20087;-79
2023/02/17 06:39:32;;;;;;;1.65;0.38;;;16.10;98.90;;;;;;5047645;28;20063;-79
2023/02/17 06:41:58;;;;;;;0.40;0.40;;;16.10;98.90;;;;;;5046759;28;20084;-79
2023/02/17 06:44:23;;;;;;;1.45;0.30;;;16.10;99.00;;;;;;5061992;28;20529;-79
2023/02/17 06:46:49;;;;;;;0.30;0.30;;;16.20;98.90;;;;;;5048674;28;20045;-79
2023/02/17 06:49:15;;;;;;;0.47;0.40;;;16.20;98.90;;;;;;5045962;28;20531;-77
2023/02/17 06:51:40;;;;;;;0.40;0.40;;;16.10;98.80;;;;;;5045531;28;20223;-79
2023/02/17 06:54:07;;;;;;;0.30;0.20;;;16.10;98.70;;;;;;5047612;28;20044;-79
2023/02/17 06:56:32;;;;;;;0.57;0.20;;;16.10;98.90;;;;;;5047918;28;20395;-79
2023/02/17 06:58:58;;;;;;;0.30;0.30;;;16.10;98.90;;;;;;5045756;28;20052;-79
2023/02/17 07:01:27;;;;;;;0.30;0.30;;;16.10;98.90;;;;;;5045369;28;20124;-79
2023/02/17 07:03:53;;;;;;;0.20;0.20;;;16.10;98.90;;;;;;5045995;28;20521;-79
2023/02/17 07:06:19;;;;;;;0.20;0.20;;;16.10;98.90;;;;;;5047327;28;20037;-79
2023/02/17 07:08:44;;;;;;;0.22;0.22;;;16.10;99.00;;;;;;5045975;28;20110;-79
2023/02/17 07:11:11;;;;;;;0.22;0.22;;;16.10;98.90;;;;;;5045594;28;20041;-79
2023/02/17 07:13:37;;;;;;;0.47;0.40;;;16.10;98.90;;;;;;5047557;28;20064;-79
2023/02/17 07:16:03;;;;;;;0.30;0.30;;;16.10;99.00;;;;;;5047418;28;20037;-79
2023/02/17 07:18:28;;;;;;;0.35;0.35;;;16.00;99.00;;;;;;5045447;28;20033;-79
2023/02/17 07:20:54;;;;;;;0.30;0.30;;;16.00;99.00;;;;;;5047489;28;20147;-79
2023/02/17 07:23:20;;;;;;;0.30;0.20;;;16.00;99.00;;;;;;5046938;28;20028;-79
2023/02/17 07:25:45;;;;;;;0.80;0.30;;;16.10;98.90;;;;;;5046725;28;20055;-79
2023/02/17 07:28:11;;;;;;;0.28;0.28;;;16.00;99.00;;;;;;5046644;28;20122;-79
2023/02/17 07:30:40;;;;;;;0.40;0.40;;;16.00;98.90;;;;;;5045089;28;20041;-79
2023/02/17 07:33:06;;;;;;;0.30;0.30;;;16.00;99.10;;;;;;5048467;28;20041;-79
2023/02/17 07:35:32;;;;;;;0.10;0.10;;;16.00;99.10;;;;;;5046310;28;20044;-79
2023/02/17 07:37:58;;;;;;;0.35;0.35;;;16.00;99.00;;;;;;5046576;28;20037;-79
2023/02/17 07:40:24;;;;;;;0.30;0.30;;;16.00;99.10;;;;;;5046109;28;20048;-78
2023/02/17 07:42:50;;;;;;;0.20;0.20;;;16.00;98.90;;;;;;5045638;28;20036;-79
2023/02/17 07:45:15;;;;;;;0.22;0.20;;;16.10;99.00;;;;;;5065701;28;20054;-79
2023/02/17 07:47:41;;;;;;;0.25;0.25;;;16.00;99.00;;;;;;5059023;28;20053;-79
2023/02/17 07:50:07;;;;;;;0.20;0.20;;;16.00;99.00;;;;;;5059291;28;20578;-79
2023/02/17 07:52:32;;;;;;;0.22;0.22;;;16.00;99.00;;;;;;5045876;28;20079;-79
2023/02/17 07:54:58;;;;;;;0.30;0.30;;;16.00;99.00;;;;;;5045566;28;20049;-79
2023/02/17 07:57:23;;;;;;;0.20;0.20;;;16.00;99.00;;;;;;5053984;28;20067;-79
2023/02/17 07:59:49;;;;;;;1.90;0.20;;;16.00;98.90;;;;;;5045955;28;20044;-79
2023/02/17 08:02:15;;;;;;;0.50;0.30;;;16.00;99.00;;;;;;5046093;28;20585;-78
2023/02/17 08:04:40;;;;;;;0.38;0.38;;;16.00;99.00;;;;;;5045231;28;20045;-79
2023/02/17 08:07:06;;;;;;;0.20;0.20;;;16.00;99.00;;;;;;5044349;28;21025;-79
2023/02/17 08:15:01;;;;;;;0.20;0.20;;;16.00;98.90;;;;;;5053629;28;20048;-79
2023/02/17 08:17:27;;;;;;;1.42;0.20;;;16.00;99.10;;;;;;5041427;28;20049;-79
2023/02/17 08:19:53;;;;;;;0.20;0.20;;;16.00;99.00;;;;;;5044785;28;20072;-79
2023/02/17 08:22:19;;;;;;;0.28;0.28;;;16.00;99.00;;;;;;5048383;28;20844;-79
2023/02/17 08:24:45;;;;;;;0.57;0.30;;;16.10;98.90;;;;;;5063603;28;20041;-79
2023/02/17 08:27:12;;;;;;;0.25;0.25;;;16.10;98.90;;;;;;5055008;28;20053;-79
2023/02/17 08:29:37;;;;;;;0.22;0.22;;;16.10;99.20;;;;;;5053167;28;20055;-79
2023/02/17 08:32:03;;;;;;;0.20;0.20;;;16.00;98.80;;;;;;5044260;28;20037;-78
2023/02/17 08:34:32;;;;;;;1.45;0.20;;;16.00;99.00;;;;;;5044838;28;20644;-78
2023/02/17 08:36:58;;;;;;;0.30;0.30;;;16.00;99.10;;;;;;5045037;28;20056;-79
2023/02/17 08:39:24;;;;;;;0.25;0.25;;;16.00;99.00;;;;;;5045936;28;20056;-78
2023/02/17 08:41:50;;;;;;;0.30;0.30;;;16.00;99.00;;;;;;5062898;28;20076;-79
2023/02/17 08:44:17;;;;;;;0.20;0.20;;;16.00;99.00;;;;;;5061100;28;20576;-79
2023/02/17 08:46:46;;;;;;;1.45;0.32;;;16.00;99.00;;;;;;5062934;28;20514;-78
2023/02/17 08:49:12;;;;;;;0.20;0.20;;;16.00;99.10;;;;;;4357636;28;10000801;-77
2023/02/17 08:51:39;;;;;;;0.20;0.20;;;16.00;99.00;;;;;;5039225;28;20052;-77
2023/02/17 08:54:05;;;;;;;0.40;0.40;;;16.00;98.80;;;;;;5048648;28;20043;-77
2023/02/17 08:56:31;;;;;;;0.45;0.20;;;16.00;99.00;;;;;;5058313;28;20472;-76
2023/02/17 08:58:56;;;;;;;0.30;0.30;;;16.00;98.90;;;;;;5060995;28;20728;-76
2023/02/17 09:01:22;;;;;;;0.17;0.17;;;16.00;99.10;;;;;;5041178;28;20402;-77
2023/02/17 09:03:48;;;;;;;0.22;0.22;;;16.00;99.10;;;;;;5058211;28;20789;-76
2023/02/17 09:06:14;;;;;;;0.20;0.20;;;16.10;99.10;;;;;;5051820;28;20048;-77
2023/02/17 09:08:40;;;;;;;0.20;0.20;;;16.10;99.30;;;;;;5041231;28;20056;-76
2023/02/17 09:11:07;;;;;;;0.25;0.25;;;16.10;99.20;;;;;;5041958;28;20049;-76
2023/02/17 09:13:33;;;;;;;0.20;0.20;;;16.10;99.20;;;;;;5063092;28;20127;-76
2023/02/17 09:15:58;;;;;;;0.20;0.20;;;16.10;99.30;;;;;;5059744;28;20478;-76
2023/02/17 09:18:24;;;;;;;0.30;0.25;;;16.10;99.20;;;;;;5052729;28;20159;-76
2023/02/17 09:20:50;;;;;;;0.30;0.30;;;16.10;99.20;;;;;;5041695;28;20132;-76
2023/02/17 09:23:15;;;;;;;0.30;0.30;;;16.10;99.10;;;;;;5038827;28;20045;-76
2023/02/17 09:25:41;;;;;;;0.05;0.05;;;16.10;99.00;;;;;;5036620;28;20387;-77
2023/02/17 09:28:07;;;;;;;0.25;0.25;;;16.10;99.10;;;;;;5037655;28;20135;-75
2023/02/17 09:30:32;;;;;;;0.20;0.20;;;16.10;99.20;;;;;;5060049;28;20066;-77
2023/02/17 09:32:58;;;;;;;0.70;0.30;;;16.10;99.00;;;;;;5063582;28;20048;-74
2023/02/17 09:35:23;;;;;;;0.10;0.10;;;16.10;99.30;;;;;;5040411;28;20037;-75
2023/02/17 09:37:49;;;;;;;0.25;0.25;;;16.10;99.20;;;;;;5051292;28;20415;-77
2023/02/17 09:40:51;;;;;;;0.22;0.22;;;16.10;99.20;;;;;;5044852;28;20102;-77
2023/02/17 09:43:24;;;;;;;0.20;0.20;;;16.10;99.20;;;;;;5046172;28;20701;-74
2023/02/17 09:45:51;;;;;;;0.30;0.30;;;16.10;99.20;;;;;;5054743;28;20139;-77
2023/02/17 09:48:19;;;;;;;0.20;0.20;;;16.10;99.10;;;;;;5052906;28;20095;-75
2023/02/17 09:50:46;;;;;;;0.28;0.28;;;16.10;99.10;;;;;;5066313;28;20036;-77
2023/02/17 09:53:32;;;;;;;0.30;0.30;;;16.10;99.10;;;;;;5057008;28;20199;-77
2023/02/17 09:55:58;;;;;;;0.30;0.30;;;16.10;99.00;;;;;;5061255;28;20048;-76
2023/02/17 09:58:39;;;;;;;0.13;0.13;;;16.10;99.10;;;;;;5063049;28;20421;-75
2023/02/17 10:01:09;;;;;;;0.30;0.30;;;16.20;98.90;;;;;;4691362;28;10000295;-74
2023/02/17 10:03:37;;;;;;;0.30;0.30;;;16.20;99.00;;;;;;5038129;28;20275;-75
2023/02/17 10:06:23;;;;;;;0.57;0.30;;;16.20;99.10;;;;;;5039071;28;20041;-74
2023/02/17 10:08:56;;;;;;;0.17;0.17;;;16.20;98.90;;;;;;5054648;28;20061;-74
2023/02/17 10:11:31;;;;;;;1.35;0.20;;;16.20;98.90;;;;;;5038746;28;20048;-76
2023/02/17 10:14:00;;;;;;;0.28;0.28;;;16.20;98.90;;;;;;5038335;28;20586;-74
2023/02/17 10:16:29;;;;;;;0.20;0.20;;;16.20;99.00;;;;;;5055049;28;20044;-76
2023/02/17 10:19:00;;;;;;;0.10;0.10;;;16.20;99.10;;;;;;5039828;28;20119;-74
2023/02/17 10:21:29;;;;;;;0.30;0.30;;;16.20;99.00;;;;;;5039644;28;20056;-75
2023/02/17 10:23:55;;;;;;;0.20;0.20;;;16.20;99.00;;;;;;5039732;28;20045;-75
2023/02/17 10:26:52;;;;;;;0.10;0.10;;;16.20;99.00;;;;;;5038376;28;20421;-75
2023/02/17 10:29:32;;;;;;;0.13;0.13;;;16.20;98.90;;;;;;5073972;28;20050;-74
2023/02/17 10:32:12;;;;;;;0.20;0.20;;;16.20;99.10;;;;;;5056898;28;20406;-75
2023/02/17 10:34:57;;;;;;;0.20;0.20;;;16.20;99.00;;;;;;5059818;28;20472;-74
2023/02/17 10:37:54;;;;;;;0.10;0.10;;;16.20;98.90;;;;;;5054856;28;20114;-74
2023/02/17 10:40:24;;;;;;;0.10;0.10;;;16.20;99.00;;;;;;5022917;28;20048;-75
2023/02/17 10:42:54;;;;;;;0.20;0.20;;;16.30;98.90;;;;;;5038194;28;20044;-74
2023/02/17 10:45:32;;;;;;;0.15;0.15;;;16.30;98.80;;;;;;5042591;28;20567;-74
2023/02/17 10:48:15;;;;;;;0.15;0.15;;;16.30;98.80;;;;;;5039922;28;20055;-76
2023/02/17 10:50:41;;;;;;;0.20;0.20;;;16.30;98.80;;;;;;5041096;28;20045;-74
2023/02/17 10:53:21;;;;;;;0.35;0.22;;;16.30;98.70;;;;;;5043224;28;20536;-74
2023/02/17 10:56:05;;;;;;;0.10;0.10;;;16.30;98.80;;;;;;5040318;28;20045;-74
2023/02/17 10:58:50;;;;;;;;;;;16.30;98.70;;;;;;5043351;28;20040;-74
2023/02/17 11:01:15;;;;;;;0.20;0.20;;;16.30;98.70;;;;;;5042458;28;20457;-74
2023/02/17 11:03:41;;;;;;;0.10;0.10;;;16.30;98.80;;;;;;5057585;28;20045;-74
2023/02/17 11:06:21;;;;;;;0.35;0.20;;;16.30;98.70;;;;;;5043785;28;20041;-75
2023/02/17 11:08:51;;;;;;;0.20;0.20;;;16.30;98.80;;;;;;5041283;28;20080;-75
2023/02/17 11:11:20;;;;;;;1.20;0.10;;;16.30;98.70;;;;;;5042192;28;20511;-75
2023/02/17 11:14:05;;;;;;;0.10;0.10;;;16.30;98.70;;;;;;5040178;28;20033;-75
2023/02/17 11:16:36;;;;;;;0.30;0.25;;;16.30;98.70;;;;;;5043050;28;20097;-77
2023/02/17 11:19:03;;;;;;;1.08;0.22;;;16.30;98.60;;;;;;5028092;28;20044;-75
2023/02/17 11:21:29;;;;;;;0.20;0.20;;;16.30;98.70;;;;;;5068053;28;20486;-77
2023/02/17 11:23:59;;;;;;;0.17;0.17;;;16.40;98.60;;;;;;5044684;28;20085;-77
2023/02/17 11:26:27;;;;;;;0.10;0.10;;;16.40;98.60;;;;;;5045206;28;20821;-77
2023/02/17 11:28:53;;;;;;;0.20;0.20;;;16.40;98.60;;;;;;5051325;28;20048;-75
2023/02/17 11:31:29;;;;;;;0.10;0.10;;;16.40;98.60;;;;;;5055380;28;20052;-75
2023/02/17 11:33:55;;;;;;;0.70;0.17;;;16.40;98.70;;;;;;5053253;28;20041;-77
2023/02/17 11:36:31;;;;;;;0.10;0.10;;;16.40;98.70;;;;;;5047658;28;20055;-74
2023/02/17 11:38:56;;;;;;;0.20;0.20;;;16.40;98.90;;;;;;5042819;28;20211;-74
2023/02/17 11:41:22;;;;;;;1.55;0.20;;;16.40;98.60;;;;;;5056239;28;20119;-74
2023/02/17 11:43:58;;;;;;;0.03;0.03;;;16.40;98.80;;;;;;5048110;28;20498;-74
2023/02/17 11:46:34;;;;;;;0.20;0.20;;;16.40;98.90;;;;;;5065234;28;20044;-76
2023/02/17 11:49:40;;;;;;;0.70;0.20;;;16.40;98.80;;;;;;5063824;28;20524;-75
2023/02/17 11:52:20;;;;;;;0.30;0.20;;;16.40;98.70;;;;;;5062956;28;20060;-75
2023/02/17 11:55:13;;;;;;;0.40;0.20;;;16.40;98.80;;;;;;5076502;28;20047;-76
2023/02/17 11:57:48;;;;;;;1.77;0.30;;;16.40;98.70;;;;;;5052845;28;20040;-76
2023/02/17 12:00:18;;;;;;;0.10;0.10;;;16.40;98.70;;;;;;5061976;28;20082;-74
2023/02/17 12:03:02;;;;;;;0.20;0.20;;;16.40;98.60;;;;;;5057973;28;20040;-74
2023/02/17 12:05:47;;;;;;;0.20;0.20;;;16.40;98.70;;;;;;5054965;28;20131;-74
2023/02/17 12:08:33;;;;;;;0.20;0.20;;;16.40;98.60;;;;;;5048302;28;20529;-74
2023/02/17 12:11:25;;;;;;;0.10;0.10;;;16.40;98.70;;;;;;5051799;28;20469;-74
2023/02/17 12:13:50;;;;;;;0.20;0.20;;;16.50;98.60;;;;;;5040167;28;20048;-77
2023/02/17 12:16:28;;;;;;;0.20;0.20;;;16.50;98.50;;;;;;5044593;28;20041;-74
2023/02/17 12:19:32;;;;;;;0.20;0.20;;;16.50;98.60;;;;;;5045664;28;20502;-74
2023/02/17 12:22:29;;;;;;;0.20;0.20;;;16.50;98.50;;;;;;5043991;28;20069;-77
2023/02/17 12:25:26;;;;;;;0.10;0.10;;;16.50;98.60;;;;;;5043780;28;20524;-77
2023/02/17 12:28:09;;;;;;;0.10;0.10;;;16.50;98.60;;;;;;5044381;28;20037;-77
2023/02/17 12:30:38;;;;;;;1.40;0.20;;;16.50;98.60;;;;;;5042837;28;20048;-76
2023/02/17 12:33:03;;;;;;;0.10;0.10;;;16.50;98.50;;;;;;5043578;28;20041;-77
2023/02/17 12:35:52;;;;;;;0.30;0.20;;;16.50;98.50;;;;;;5045793;28;20029;-76
2023/02/17 12:38:39;;;;;;;0.30;0.30;;;16.60;98.50;;;;;;5048813;28;20077;-76
2023/02/17 12:41:10;;;;;;;0.20;0.20;;;16.50;98.40;;;;;;5046397;28;20401;-76
2023/02/17 12:43:48;;;;;;;0.30;0.20;;;16.60;98.40;;;;;;5047880;28;20180;-76
2023/02/17 12:46:28;;;;;;;0.20;0.20;;;16.50;98.40;;;;;;5046277;28;20111;-76
2023/02/17 12:49:00;;;;;;;2.95;0.20;;;16.60;98.50;;;;;;5058292;28;20033;-76
2023/02/17 12:51:31;;;;;;;0.20;0.20;;;16.50;98.40;;;;;;5044471;28;20040;-77
2023/02/17 12:54:05;;;;;;;0.20;0.20;;;16.50;98.40;;;;;;5043529;28;20426;-76
2023/02/17 12:56:49;;;;;;;0.13;0.13;;;16.50;98.40;;;;;;5074717;28;20051;-77
2023/02/17 12:59:33;;;;;;;0.10;0.10;;;16.50;98.50;;;;;;5063832;28;20040;-76
2023/02/17 13:02:05;;;;;;;0.25;0.25;;;16.50;98.40;;;;;;5059582;28;20136;-76
2023/02/17 13:04:32;;;;;;;0.13;0.13;;;16.50;98.40;;;;;;5042548;28;20526;-76